Terminal Aerodrome Forecast
Issued by NWS

Current Version | Previous Version | Text Only | Print | Product List | Glossary On
Versions: 1 2 3 4 5 6 7 8 9 10 11 12 13 14 15 16 17 18 19 20
000 FTUS41 KGYX 300821 AAB TAFLEB TAF AMD KLEB 300821Z 3008/3106 00000KT 3SM BR SCT250 FM300930 00000KT 1/4SM FG VV001 FM301400 VRB03KT P6SM BKN250 FM301700 20010KT P6SM BKN250=

USA.gov is the U.S. government's official web portal to all federal, state and local government web resources and services.